Time;durP1;ratioP1;P1;durP2;ratioP2;P2;SDS_P1;SDS_P2;PMS_P1;PMS_P2;Temp;Humidity;BMP_temperature;BMP_pressure;BME280_temperature;BME280_humidity;BME280_pressure;Samples;Min_cycle;Max_cycle;Signal;HPM_P1;HPM_P2
2023/06/20 00:00:47;;;;;;;0.10;0.10;;;16.70;99.90;;;;;;5073007;28;20417;-74
2023/06/20 00:03:14;;;;;;;0.40;0.40;;;16.60;99.90;;;;;;5090084;28;20127;-75
2023/06/20 00:05:40;;;;;;;0.40;0.40;;;16.60;99.90;;;;;;5089340;28;20044;-74
2023/06/20 00:08:05;;;;;;;;;;;16.80;99.90;;;;;;5073090;28;20094;-75
2023/06/20 00:10:31;;;;;;;0.20;0.20;;;16.60;99.90;;;;;;5089653;28;20277;-76
2023/06/20 00:12:56;;;;;;;;;;;16.60;99.90;;;;;;5089816;28;20046;-75
2023/06/20 00:15:25;;;;;;;0.20;0.20;;;16.50;99.90;;;;;;5089729;28;20014;-75
2023/06/20 00:17:52;;;;;;;0.75;0.63;;;16.60;99.90;;;;;;5089328;28;20134;-76
2023/06/20 00:20:19;;;;;;;0.10;0.10;;;16.40;99.90;;;;;;5089666;28;20043;-76
2023/06/20 00:22:44;;;;;;;0.20;0.20;;;16.50;99.90;;;;;;5072524;28;20074;-76
2023/06/20 00:25:10;;;;;;;;;;;16.40;99.90;;;;;;5073108;28;20443;-76
2023/06/20 00:27:36;;;;;;;0.20;0.20;;;16.50;99.90;;;;;;5072499;28;19919;-75
2023/06/20 00:30:01;;;;;;;;;;;16.40;99.90;;;;;;5089400;28;20052;-75
2023/06/20 00:32:27;;;;;;;0.20;0.20;;;16.40;99.90;;;;;;5089097;28;19966;-77
2023/06/20 00:34:53;;;;;;;;;;;16.40;99.90;;;;;;5089124;28;20082;-75
2023/06/20 00:37:19;;;;;;;0.30;0.30;;;16.40;99.90;;;;;;5088089;28;20006;-76
2023/06/20 00:39:45;;;;;;;0.20;0.20;;;16.30;99.90;;;;;;5088674;28;20040;-76
2023/06/20 00:42:18;;;;;;;;;;;16.30;99.90;;;;;;5089818;28;20050;-76
2023/06/20 00:44:44;;;;;;;0.30;0.30;;;16.30;99.90;;;;;;5089141;28;19916;-76
2023/06/20 00:47:09;;;;;;;0.20;0.20;;;16.30;99.90;;;;;;5089532;28;20087;-75
2023/06/20 00:49:35;;;;;;;;;;;16.20;99.90;;;;;;5072566;28;20072;-75
2023/06/20 00:52:05;;;;;;;0.30;0.30;;;16.30;99.90;;;;;;5089111;28;19943;-77
2023/06/20 00:54:31;;;;;;;0.20;0.20;;;16.30;99.90;;;;;;5055727;28;20044;-76
2023/06/20 00:56:57;;;;;;;;;;;16.30;99.90;;;;;;5072388;28;20164;-76
2023/06/20 00:59:23;;;;;;;0.30;0.30;;;16.30;99.90;;;;;;5055621;28;20344;-76
2023/06/20 01:01:48;;;;;;;;;;;16.30;99.90;;;;;;5072548;28;20046;-77
2023/06/20 01:04:14;;;;;;;0.20;0.20;;;16.40;99.90;;;;;;5072015;28;20434;-77
2023/06/20 01:06:54;;;;;;;;;;;16.40;99.90;;;;;;5089240;28;20435;-75
2023/06/20 01:09:29;;;;;;;0.20;0.20;;;16.40;99.90;;;;;;5089011;28;19931;-76
2023/06/20 01:12:13;;;;;;;0.10;0.10;;;16.50;99.90;;;;;;5088881;28;20035;-77
2023/06/20 01:14:44;;;;;;;0.20;0.20;;;16.50;99.90;;;;;;5072130;28;20040;-77
2023/06/20 01:17:22;;;;;;;0.20;0.20;;;16.60;99.90;;;;;;5071953;28;20071;-77
2023/06/20 01:20:09;;;;;;;0.40;0.40;;;16.60;99.90;;;;;;5088450;28;20055;-76
2023/06/20 01:22:49;;;;;;;0.30;0.30;;;16.60;99.90;;;;;;5089129;28;20067;-75
2023/06/20 01:25:38;;;;;;;0.20;0.20;;;16.50;99.90;;;;;;5088710;28;20063;-78
2023/06/20 01:28:30;;;;;;;0.10;0.10;;;16.60;99.90;;;;;;5088611;28;20390;-76
2023/06/20 01:31:14;;;;;;;0.25;0.25;;;16.50;99.90;;;;;;5057517;28;20052;-78
2023/06/20 01:33:53;;;;;;;0.20;0.20;;;16.50;99.90;;;;;;5071852;28;20055;-77
2023/06/20 01:36:21;;;;;;;0.30;0.30;;;16.50;99.90;;;;;;5088642;28;20050;-76
2023/06/20 01:38:57;;;;;;;0.20;0.20;;;16.50;99.90;;;;;;5087982;28;20043;-76
2023/06/20 01:41:24;;;;;;;0.30;0.30;;;16.50;99.90;;;;;;5088545;28;20054;-76
2023/06/20 01:43:55;;;;;;;0.20;0.20;;;16.50;99.90;;;;;;5088474;28;20445;-74
2023/06/20 01:46:22;;;;;;;0.28;0.28;;;16.50;99.90;;;;;;5072994;28;20056;-77
2023/06/20 01:48:50;;;;;;;0.10;0.10;;;16.50;99.90;;;;;;5090355;28;20401;-76
2023/06/20 01:51:17;;;;;;;0.22;0.22;;;16.50;99.90;;;;;;5076236;28;20042;-75
2023/06/20 01:53:44;;;;;;;0.20;0.20;;;16.40;99.90;;;;;;5075989;28;20070;-77
2023/06/20 01:56:11;;;;;;;0.20;0.20;;;16.40;99.90;;;;;;5092229;28;20101;-77
2023/06/20 01:58:40;;;;;;;0.20;0.20;;;16.50;99.90;;;;;;5075768;28;20040;-76
2023/06/20 02:01:07;;;;;;;0.30;0.30;;;16.50;99.90;;;;;;5092188;28;20044;-75
2023/06/20 02:03:33;;;;;;;0.10;0.10;;;16.50;99.90;;;;;;5127201;27;20150;-75
2023/06/20 02:06:01;;;;;;;0.20;0.20;;;16.50;99.90;;;;;;5092506;28;20126;-76
2023/06/20 02:08:30;;;;;;;0.22;0.22;;;16.40;99.90;;;;;;5092448;28;20076;-75
2023/06/20 02:10:57;;;;;;;0.35;0.35;;;16.50;99.90;;;;;;5091809;28;20055;-77
2023/06/20 02:13:23;;;;;;;0.20;0.20;;;16.50;99.90;;;;;;5058820;28;20073;-77
2023/06/20 02:15:53;;;;;;;0.28;0.28;;;16.40;99.90;;;;;;5092474;28;20366;-76
2023/06/20 02:18:20;;;;;;;0.10;0.10;;;16.50;99.90;;;;;;5091957;28;20047;-76
2023/06/20 02:20:53;;;;;;;0.20;0.20;;;16.30;99.90;;;;;;5092128;28;20040;-76
2023/06/20 02:23:27;;;;;;;0.28;0.28;;;16.40;99.90;;;;;;5074981;28;20101;-77
2023/06/20 02:25:56;;;;;;;0.22;0.22;;;16.40;99.90;;;;;;5091371;28;20101;-77
2023/06/20 02:28:26;;;;;;;0.20;0.20;;;16.40;99.90;;;;;;5091699;28;20043;-75
2023/06/20 02:30:53;;;;;;;0.25;0.25;;;16.50;99.90;;;;;;5091354;28;20036;-76
2023/06/20 02:33:21;;;;;;;0.20;0.20;;;16.40;99.90;;;;;;5074802;28;20078;-75
2023/06/20 02:35:50;;;;;;;0.30;0.30;;;16.50;99.90;;;;;;5091470;28;20103;-76
2023/06/20 02:38:15;;;;;;;0.20;0.20;;;16.40;99.90;;;;;;5091236;28;20046;-75
2023/06/20 02:40:41;;;;;;;;;;;16.60;99.90;;;;;;5092051;28;20036;-77
2023/06/20 02:43:08;;;;;;;0.30;0.30;;;16.60;99.90;;;;;;5074170;28;19919;-75
2023/06/20 02:45:35;;;;;;;0.30;0.30;;;16.60;99.90;;;;;;5091340;28;20048;-77
2023/06/20 02:48:29;;;;;;;0.50;0.50;;;16.50;99.90;;;;;;5091013;28;20040;-75
2023/06/20 02:51:21;;;;;;;0.22;0.22;;;16.60;99.90;;;;;;5091898;28;20555;-76
2023/06/20 02:54:12;;;;;;;0.30;0.30;;;16.70;99.90;;;;;;5071467;28;20033;-77
2023/06/20 02:56:41;;;;;;;0.30;0.30;;;16.60;99.90;;;;;;5054407;28;20082;-77
2023/06/20 02:59:10;;;;;;;0.30;0.30;;;16.70;99.90;;;;;;5070111;28;20084;-78
2023/06/20 03:01:37;;;;;;;0.38;0.38;;;16.70;99.90;;;;;;5068806;28;20048;-77
2023/06/20 03:04:05;;;;;;;0.40;0.40;;;16.80;99.90;;;;;;5069303;28;20048;-74
2023/06/20 03:06:31;;;;;;;0.40;0.40;;;16.90;99.90;;;;;;5086708;28;20036;-74
2023/06/20 03:08:59;;;;;;;;;;;16.90;99.90;;;;;;5096835;28;20050;-77
2023/06/20 03:11:25;;;;;;;0.22;0.22;;;17.00;99.90;;;;;;5108362;28;20461;-74
2023/06/20 03:13:51;;;;;;;0.20;0.20;;;16.80;99.90;;;;;;5073585;28;20035;-77
2023/06/20 03:16:17;;;;;;;;;;;16.90;99.90;;;;;;5090651;28;20559;-76
2023/06/20 03:18:43;;;;;;;0.35;0.35;;;16.90;99.90;;;;;;5094226;28;20002;-76
2023/06/20 03:21:08;;;;;;;;;;;16.90;99.90;;;;;;5092098;28;20089;-75
2023/06/20 03:23:34;;;;;;;0.22;0.22;;;16.90;99.90;;;;;;5091978;28;19920;-74
2023/06/20 03:25:59;;;;;;;;;;;16.90;99.90;;;;;;5074250;28;20133;-76
2023/06/20 03:28:26;;;;;;;0.10;0.10;;;16.90;99.90;;;;;;5108083;28;19924;-75
2023/06/20 03:30:52;;;;;;;0.30;0.30;;;16.90;99.90;;;;;;5090729;28;20040;-74
2023/06/20 03:33:18;;;;;;;1.75;0.77;;;16.80;99.90;;;;;;5089983;28;20161;-75
2023/06/20 03:35:44;;;;;;;;;;;16.90;99.90;;;;;;5057305;28;20083;-75
2023/06/20 03:38:11;;;;;;;0.82;0.80;;;16.90;99.90;;;;;;5090723;28;20405;-78
2023/06/20 03:40:37;;;;;;;0.57;0.57;;;16.90;99.90;;;;;;5090675;28;20123;-76
2023/06/20 03:43:03;;;;;;;;;;;16.90;99.90;;;;;;5090990;28;20142;-76
2023/06/20 03:45:29;;;;;;;0.40;0.40;;;16.90;99.90;;;;;;5091180;28;19924;-76
2023/06/20 03:47:54;;;;;;;;;;;16.80;99.90;;;;;;5091629;28;20082;-77
2023/06/20 03:50:20;;;;;;;0.43;0.43;;;16.90;99.90;;;;;;5089829;28;19923;-77
2023/06/20 03:52:46;;;;;;;;;;;17.00;99.90;;;;;;5090764;28;20040;-76
2023/06/20 03:55:11;;;;;;;0.20;0.20;;;16.90;99.90;;;;;;5073136;28;19915;-77
2023/06/20 03:57:37;;;;;;;;;;;16.90;99.90;;;;;;5074583;28;20036;-76
2023/06/20 04:00:11;;;;;;;1.30;1.20;;;16.80;99.90;;;;;;5089897;28;20396;-74
2023/06/20 04:02:41;;;;;;;0.70;0.70;;;16.80;99.90;;;;;;5090158;28;20044;-76
2023/06/20 04:05:08;;;;;;;0.52;0.35;;;16.90;99.90;;;;;;5089671;28;20082;-75
2023/06/20 04:07:35;;;;;;;0.30;0.30;;;16.90;99.90;;;;;;5073306;28;20047;-76
2023/06/20 04:10:01;;;;;;;0.40;0.40;;;17.00;99.90;;;;;;5089660;28;20493;-76
2023/06/20 04:12:26;;;;;;;;;;;17.00;99.90;;;;;;5090005;28;20040;-74
2023/06/20 04:14:53;;;;;;;0.30;0.30;;;17.10;99.90;;;;;;5089910;28;19916;-76
2023/06/20 04:17:19;;;;;;;0.25;0.25;;;17.10;99.90;;;;;;5056779;28;20493;-75
2023/06/20 04:19:45;;;;;;;0.68;0.52;;;17.30;99.90;;;;;;5089984;28;20048;-77
2023/06/20 04:22:12;;;;;;;;;;;17.40;99.90;;;;;;5056759;28;20047;-76
2023/06/20 04:24:38;;;;;;;0.28;0.28;;;17.40;99.90;;;;;;5090952;28;19963;-77
2023/06/20 04:27:04;;;;;;;0.28;0.17;;;17.50;99.90;;;;;;5090012;28;20044;-77
2023/06/20 04:29:30;;;;;;;0.20;0.20;;;17.50;99.90;;;;;;5090090;28;20044;-75
2023/06/20 04:31:56;;;;;;;;;;;17.80;99.90;;;;;;5072971;28;20086;-77
2023/06/20 04:34:23;;;;;;;0.10;0.10;;;17.80;99.90;;;;;;5089097;28;19959;-77
2023/06/20 04:36:52;;;;;;;0.20;0.20;;;18.00;99.90;;;;;;5072579;28;20063;-77
2023/06/20 04:39:18;;;;;;;0.30;0.28;;;18.10;99.90;;;;;;5072217;28;20036;-76
2023/06/20 04:41:44;;;;;;;0.20;0.20;;;18.10;99.90;;;;;;5089443;28;20093;-75
2023/06/20 04:44:09;;;;;;;;;;;18.20;99.90;;;;;;5089800;28;20052;-77
2023/06/20 04:46:35;;;;;;;0.20;0.20;;;18.50;99.90;;;;;;5092266;28;19926;-76
2023/06/20 04:49:01;;;;;;;;;;;18.60;99.90;;;;;;5090567;28;20127;-76
2023/06/20 04:51:27;;;;;;;0.32;0.32;;;18.60;99.90;;;;;;5072889;28;19920;-76
2023/06/20 04:53:52;;;;;;;;;;;18.80;99.90;;;;;;5072644;28;20378;-76
2023/06/20 04:56:19;;;;;;;0.10;0.10;;;18.80;99.90;;;;;;5089189;28;19927;-78
2023/06/20 04:58:46;;;;;;;0.20;0.20;;;18.80;99.90;;;;;;5072451;28;20048;-77
2023/06/20 05:01:14;;;;;;;0.13;0.13;;;19.00;99.90;;;;;;5088392;28;20047;-75
2023/06/20 05:03:42;;;;;;;0.30;0.30;;;18.90;99.90;;;;;;5089133;28;20177;-76
2023/06/20 05:06:08;;;;;;;0.20;0.20;;;18.90;99.90;;;;;;5089008;28;20401;-75
2023/06/20 05:08:34;;;;;;;0.85;0.55;;;18.90;99.90;;;;;;5055458;28;20040;-77
2023/06/20 05:10:59;;;;;;;;;;;18.90;99.90;;;;;;5055747;28;20461;-76
2023/06/20 05:13:25;;;;;;;0.20;0.20;;;19.00;99.90;;;;;;5088127;28;19915;-75
2023/06/20 05:15:51;;;;;;;;;;;18.90;99.90;;;;;;5073092;28;20040;-77
2023/06/20 05:18:16;;;;;;;0.10;0.10;;;18.90;99.90;;;;;;5071979;28;20015;-76
2023/06/20 05:20:42;;;;;;;;;;;18.80;99.90;;;;;;5072692;28;20055;-75
2023/06/20 05:23:07;;;;;;;0.25;0.25;;;18.90;99.90;;;;;;5087566;28;20003;-76
2023/06/20 05:25:34;;;;;;;;;;;18.90;99.90;;;;;;5089075;28;20043;-78
2023/06/20 05:28:00;;;;;;;0.20;0.20;;;18.90;99.90;;;;;;5088618;28;20373;-77
2023/06/20 05:30:25;;;;;;;0.20;0.20;;;18.90;99.90;;;;;;5071509;28;20036;-77
2023/06/20 05:32:51;;;;;;;;;;;18.90;99.90;;;;;;5088962;28;20059;-76
2023/06/20 05:35:18;;;;;;;0.20;0.20;;;19.00;99.90;;;;;;5087917;28;19920;-75
2023/06/20 05:37:46;;;;;;;0.80;0.80;;;19.00;99.90;;;;;;5088601;28;20053;-78
2023/06/20 05:40:12;;;;;;;0.50;0.38;;;19.10;99.90;;;;;;5088404;28;20044;-78
2023/06/20 05:42:37;;;;;;;0.28;0.20;;;19.20;99.90;;;;;;5088659;28;20039;-76
2023/06/20 05:45:04;;;;;;;0.20;0.20;;;19.30;99.90;;;;;;5071526;28;20473;-76
2023/06/20 05:47:30;;;;;;;0.20;0.20;;;19.30;99.90;;;;;;5087910;28;20139;-75
2023/06/20 05:49:57;;;;;;;0.88;0.82;;;19.30;99.90;;;;;;5088362;28;20119;-76
2023/06/20 05:52:23;;;;;;;0.40;0.35;;;19.40;99.90;;;;;;5088022;28;20040;-76
2023/06/20 05:54:48;;;;;;;0.20;0.20;;;19.40;99.90;;;;;;5088159;28;20036;-78
2023/06/20 05:57:14;;;;;;;0.70;0.28;;;19.50;99.90;;;;;;5087701;28;20036;-77
2023/06/20 05:59:40;;;;;;;0.28;0.28;;;19.40;99.90;;;;;;5072038;28;20052;-77
2023/06/20 06:02:06;;;;;;;1.23;1.23;;;19.50;99.90;;;;;;5071595;28;20403;-78
2023/06/20 06:04:33;;;;;;;0.20;0.20;;;19.50;99.90;;;;;;5054686;28;20044;-80
2023/06/20 06:06:59;;;;;;;0.17;0.17;;;19.50;99.90;;;;;;5071732;28;20505;-76
2023/06/20 06:09:25;;;;;;;0.10;0.10;;;19.50;99.90;;;;;;5087976;28;20063;-77
2023/06/20 06:11:50;;;;;;;0.30;0.30;;;19.40;99.90;;;;;;5088303;28;20044;-78
2023/06/20 06:14:16;;;;;;;0.57;0.57;;;19.40;99.90;;;;;;5071110;28;20048;-75
2023/06/20 06:16:44;;;;;;;0.20;0.20;;;19.50;99.90;;;;;;5071324;28;20073;-77
2023/06/20 06:19:10;;;;;;;0.20;0.20;;;19.50;99.90;;;;;;5071308;28;20047;-75
2023/06/20 06:21:36;;;;;;;0.30;0.30;;;19.50;99.90;;;;;;5071386;28;20500;-77
2023/06/20 06:24:01;;;;;;;0.40;0.40;;;19.50;99.90;;;;;;5088330;28;20055;-77
2023/06/20 06:26:27;;;;;;;0.40;0.40;;;19.60;99.90;;;;;;5087821;28;20040;-75
2023/06/20 06:28:54;;;;;;;0.75;0.30;;;19.50;99.90;;;;;;5088087;28;20169;-75
2023/06/20 06:31:28;;;;;;;0.98;0.98;;;19.60;99.90;;;;;;5087515;28;20048;-74
2023/06/20 06:33:56;;;;;;;0.45;0.45;;;19.70;99.90;;;;;;5071037;28;20048;-76
2023/06/20 06:36:24;;;;;;;0.80;0.43;;;19.70;99.90;;;;;;5091358;28;20040;-77
2023/06/20 06:38:51;;;;;;;0.25;0.25;;;19.90;99.90;;;;;;5076138;28;20047;-76
2023/06/20 06:41:17;;;;;;;1.77;1.67;;;19.90;99.90;;;;;;5075120;28;20112;-75
2023/06/20 06:43:43;;;;;;;0.30;0.30;;;20.00;99.90;;;;;;5075166;28;20048;-77
2023/06/20 06:46:09;;;;;;;0.40;0.40;;;20.10;99.90;;;;;;5074468;28;20540;-74
2023/06/20 06:48:35;;;;;;;0.20;0.20;;;20.30;99.90;;;;;;5091045;28;20047;-75
2023/06/20 06:51:01;;;;;;;0.30;0.30;;;20.40;99.90;;;;;;5091353;28;20124;-78
2023/06/20 06:53:27;;;;;;;0.20;0.20;;;20.50;99.90;;;;;;5074418;28;20032;-76
2023/06/20 06:55:53;;;;;;;0.20;0.20;;;20.60;99.90;;;;;;5091722;28;20046;-75
2023/06/20 06:58:18;;;;;;;0.10;0.10;;;20.80;99.90;;;;;;5091848;28;20051;-75
2023/06/20 07:00:44;;;;;;;0.50;0.50;;;21.00;99.90;;;;;;5092403;28;20506;-75
2023/06/20 07:03:10;;;;;;;0.47;0.45;;;21.10;99.90;;;;;;5075973;28;20454;-78
2023/06/20 07:05:37;;;;;;;0.35;0.35;;;21.20;99.90;;;;;;5074700;28;20412;-77
2023/06/20 07:08:03;;;;;;;0.20;0.20;;;21.20;99.90;;;;;;5091793;28;20071;-76
2023/06/20 07:10:28;;;;;;;0.30;0.30;;;21.40;99.90;;;;;;5074520;28;20584;-75
2023/06/20 07:12:54;;;;;;;0.63;0.25;;;21.50;99.90;;;;;;5075035;28;20050;-77
2023/06/20 07:15:20;;;;;;;0.10;0.10;;;21.60;99.90;;;;;;5074100;28;20044;-77
2023/06/20 07:17:45;;;;;;;0.20;0.20;;;21.80;99.90;;;;;;5091861;28;20081;-74
2023/06/20 07:20:11;;;;;;;1.10;0.50;;;21.90;99.90;;;;;;5092008;28;20044;-75
2023/06/20 07:22:40;;;;;;;0.30;0.30;;;22.10;99.90;;;;;;5091328;28;20075;-75
2023/06/20 07:25:07;;;;;;;0.20;0.20;;;22.20;99.90;;;;;;5074604;28;20131;-75
2023/06/20 07:27:33;;;;;;;0.32;0.30;;;22.40;99.90;;;;;;5074052;28;20131;-76
2023/06/20 07:29:59;;;;;;;0.32;0.32;;;22.50;99.90;;;;;;5074342;28;20416;-79
2023/06/20 07:32:25;;;;;;;0.25;0.25;;;22.70;99.90;;;;;;5124888;27;20063;-75
2023/06/20 07:34:50;;;;;;;0.40;0.40;;;22.80;99.90;;;;;;5058158;28;20480;-77
2023/06/20 07:37:16;;;;;;;0.22;0.22;;;22.90;99.90;;;;;;5107173;27;20489;-75
2023/06/20 07:39:43;;;;;;;1.27;1.25;;;22.90;99.90;;;;;;5091290;28;20370;-76
2023/06/20 07:42:09;;;;;;;0.20;0.20;;;22.90;99.90;;;;;;5090673;28;20052;-78
2023/06/20 07:44:35;;;;;;;0.75;0.75;;;22.90;99.90;;;;;;5107407;28;20048;-75
2023/06/20 07:47:01;;;;;;;0.35;0.35;;;22.90;99.90;;;;;;5107159;28;20043;-76
2023/06/20 07:49:28;;;;;;;0.30;0.30;;;23.00;99.90;;;;;;5089599;28;20036;-77
2023/06/20 07:51:54;;;;;;;0.75;0.75;;;23.00;99.90;;;;;;5057119;28;20463;-75
2023/06/20 07:54:19;;;;;;;1.23;0.40;;;23.20;99.90;;;;;;5090303;28;20592;-78
2023/06/20 07:56:45;;;;;;;0.50;0.50;;;23.20;99.90;;;;;;5073677;28;20123;-77
2023/06/20 07:59:11;;;;;;;0.25;0.25;;;23.40;99.90;;;;;;5090757;28;20036;-77
2023/06/20 08:01:37;;;;;;;0.40;0.40;;;23.50;99.90;;;;;;5090332;28;20497;-76
2023/06/20 08:04:02;;;;;;;1.65;0.43;;;23.70;99.90;;;;;;5090504;28;20036;-76
2023/06/20 08:06:28;;;;;;;0.85;0.85;;;23.90;99.90;;;;;;5089726;28;20508;-76
2023/06/20 08:08:54;;;;;;;0.20;0.20;;;24.10;99.90;;;;;;5090005;28;20097;-76
2023/06/20 08:11:24;;;;;;;0.45;0.45;;;24.30;99.90;;;;;;5090046;28;20080;-76
2023/06/20 08:13:49;;;;;;;0.55;0.40;;;24.30;99.90;;;;;;5090171;28;20044;-78
2023/06/20 08:16:15;;;;;;;0.40;0.22;;;24.50;99.90;;;;;;5073416;28;20040;-78
2023/06/20 08:18:41;;;;;;;1.80;0.73;;;24.60;99.90;;;;;;5073368;28;20078;-76
2023/06/20 08:21:07;;;;;;;0.25;0.25;;;24.70;99.90;;;;;;5090234;28;20523;-75
2023/06/20 08:23:33;;;;;;;0.38;0.38;;;25.00;99.90;;;;;;5089636;28;20051;-77
2023/06/20 08:25:59;;;;;;;0.20;0.20;;;25.10;99.90;;;;;;5072948;28;20048;-77
2023/06/20 08:28:25;;;;;;;0.20;0.20;;;25.30;99.90;;;;;;5089426;28;20051;-75
2023/06/20 08:30:52;;;;;;;0.50;0.50;;;25.50;99.90;;;;;;5072751;28;20044;-77
2023/06/20 08:33:19;;;;;;;0.55;0.55;;;25.70;99.90;;;;;;5089431;28;20083;-77
2023/06/20 08:35:45;;;;;;;0.75;0.60;;;25.70;99.90;;;;;;5089939;28;20055;-74
2023/06/20 08:38:11;;;;;;;0.40;0.40;;;25.80;99.90;;;;;;5072499;28;20055;-78
2023/06/20 08:40:37;;;;;;;0.63;0.45;;;25.80;99.90;;;;;;5072602;28;20040;-76
2023/06/20 08:43:03;;;;;;;0.38;0.38;;;25.80;99.90;;;;;;5089324;28;20489;-77
2023/06/20 08:45:29;;;;;;;0.28;0.28;;;25.70;99.90;;;;;;5089151;28;20140;-77
2023/06/20 08:48:01;;;;;;;0.25;0.25;;;25.60;99.90;;;;;;5075713;28;20040;-75
2023/06/20 08:50:27;;;;;;;0.45;0.43;;;25.50;99.90;;;;;;5090224;28;20048;-76
2023/06/20 08:52:55;;;;;;;0.52;0.40;;;25.50;99.90;;;;;;5089353;28;20446;-78
2023/06/20 08:55:21;;;;;;;2.50;1.55;;;25.30;99.90;;;;;;5089211;28;20123;-78
2023/06/20 08:57:47;;;;;;;0.45;0.30;;;25.10;99.90;;;;;;5088657;28;20089;-77
2023/06/20 09:00:23;;;;;;;0.20;0.20;;;25.40;99.90;;;;;;5089038;28;20040;-79
2023/06/20 09:02:51;;;;;;;0.20;0.20;;;25.40;99.90;;;;;;5072692;28;20497;-77
2023/06/20 09:05:18;;;;;;;0.52;0.52;;;25.50;99.90;;;;;;5089295;28;20052;-78
2023/06/20 09:07:44;;;;;;;0.40;0.40;;;25.50;99.90;;;;;;5071922;28;20129;-77
2023/06/20 09:10:13;;;;;;;0.30;0.30;;;25.50;99.90;;;;;;5089137;28;20387;-75
2023/06/20 09:12:52;;;;;;;0.20;0.20;;;25.60;99.90;;;;;;5071958;28;20269;-78
2023/06/20 09:15:23;;;;;;;1.17;0.52;;;25.70;99.90;;;;;;5089144;28;20040;-78
2023/06/20 09:18:00;;;;;;;0.22;0.22;;;25.80;99.90;;;;;;5071971;28;20048;-76
2023/06/20 09:20:28;;;;;;;1.30;0.80;;;25.90;99.90;;;;;;5071614;28;20044;-78
2023/06/20 09:22:54;;;;;;;1.02;0.50;;;26.10;99.90;;;;;;5071842;28;20052;-75
2023/06/20 09:25:25;;;;;;;0.68;0.68;;;26.30;99.90;;;;;;5072166;28;20130;-75
2023/06/20 09:27:52;;;;;;;0.20;0.20;;;26.50;99.90;;;;;;5072000;28;20517;-76
2023/06/20 09:30:18;;;;;;;0.20;0.20;;;26.60;99.90;;;;;;5072258;28;20077;-77
2023/06/20 09:32:44;;;;;;;0.45;0.45;;;26.60;99.90;;;;;;5088414;28;20060;-78
2023/06/20 09:35:16;;;;;;;0.70;0.70;;;26.70;99.90;;;;;;5089439;28;20052;-77
2023/06/20 09:37:47;;;;;;;0.28;0.22;;;26.70;99.90;;;;;;5072098;28;20039;-75
2023/06/20 09:40:14;;;;;;;0.93;0.82;;;26.90;99.90;;;;;;5072443;28;20054;-76
2023/06/20 09:42:42;;;;;;;1.27;0.55;;;27.00;99.90;;;;;;5071584;28;20044;-77
2023/06/20 09:45:09;;;;;;;0.38;0.38;;;27.00;99.90;;;;;;5071777;28;20504;-77
2023/06/20 09:47:37;;;;;;;0.10;0.10;;;27.20;99.90;;;;;;5055365;28;20044;-76
2023/06/20 09:50:07;;;;;;;0.95;0.73;;;27.40;99.90;;;;;;5068068;28;20056;-76
2023/06/20 09:52:43;;;;;;;0.47;0.47;;;27.60;99.90;;;;;;5052137;28;20048;-75
2023/06/20 09:55:10;;;;;;;;;;;27.70;99.90;;;;;;5052670;28;20049;-78
2023/06/20 09:57:42;;;;;;;0.20;0.20;;;27.80;99.90;;;;;;5085473;28;19917;-77
2023/06/20 10:00:13;;;;;;;0.55;0.55;;;27.80;99.90;;;;;;5068591;28;20494;-78
2023/06/20 10:02:44;;;;;;;0.32;0.32;;;27.90;99.90;;;;;;5067575;28;20044;-77
2023/06/20 10:05:18;;;;;;;0.35;0.35;;;27.80;99.90;;;;;;5067876;28;20080;-80
2023/06/20 10:07:46;;;;;;;2.42;0.82;;;27.80;99.90;;;;;;5051414;28;20102;-77
2023/06/20 10:10:13;;;;;;;0.88;0.75;;;27.90;99.90;;;;;;5070230;28;20045;-76
2023/06/20 10:12:40;;;;;;;0.82;0.82;;;27.90;99.90;;;;;;5088727;28;20044;-76
2023/06/20 10:15:07;;;;;;;0.43;0.40;;;27.90;99.90;;;;;;5072196;28;20051;-76
2023/06/20 10:17:38;;;;;;;0.63;0.63;;;28.00;99.90;;;;;;5090321;28;20481;-78
2023/06/20 10:20:08;;;;;;;0.45;0.45;;;28.00;99.90;;;;;;5092601;28;20051;-75
2023/06/20 10:22:58;;;;;;;0.43;0.43;;;28.40;99.90;;;;;;5075302;28;20040;-77
2023/06/20 10:25:25;;;;;;;0.13;0.13;;;28.30;99.90;;;;;;5076570;28;20046;-75
2023/06/20 10:28:09;;;;;;;0.60;0.60;;;28.10;99.90;;;;;;5093052;28;20044;-78
2023/06/20 10:30:49;;;;;;;0.50;0.50;;;28.50;99.90;;;;;;5075905;28;20123;-76
2023/06/20 10:33:22;;;;;;;0.50;0.40;;;28.20;99.90;;;;;;5092039;28;20056;-76
2023/06/20 10:36:08;;;;;;;0.20;0.20;;;28.60;99.90;;;;;;5091937;28;20044;-78
2023/06/20 10:38:50;;;;;;;0.32;0.32;;;28.60;99.90;;;;;;5075489;28;20126;-77
2023/06/20 10:41:28;;;;;;;0.90;0.77;;;28.40;99.90;;;;;;5075034;28;20531;-77
2023/06/20 10:43:58;;;;;;;0.75;0.75;;;28.80;99.90;;;;;;5091984;28;20047;-78
2023/06/20 10:46:36;;;;;;;0.20;0.20;;;28.50;99.90;;;;;;5058862;28;20151;-76
2023/06/20 10:49:06;;;;;;;1.77;1.15;;;28.90;99.90;;;;;;5091744;28;20100;-79
2023/06/20 10:51:43;;;;;;;1.40;1.13;;;28.50;99.90;;;;;;5126336;27;20393;-77
2023/06/20 10:54:10;;;;;;;0.40;0.25;;;28.50;99.90;;;;;;5126310;27;20043;-76
2023/06/20 10:56:36;;;;;;;0.77;0.45;;;28.90;99.90;;;;;;5091890;28;20032;-78
2023/06/20 10:59:16;;;;;;;0.28;0.28;;;28.90;99.90;;;;;;5092654;28;20047;-76
2023/06/20 11:01:42;;;;;;;1.90;1.02;;;28.90;99.90;;;;;;5108859;28;20043;-77
2023/06/20 11:04:09;;;;;;;0.40;0.40;;;28.80;99.90;;;;;;5091550;28;20044;-78
2023/06/20 11:06:35;;;;;;;0.20;0.20;;;28.20;99.90;;;;;;5125902;27;20044;-77
2023/06/20 11:09:01;;;;;;;0.70;0.70;;;28.90;99.90;;;;;;5091861;28;20125;-79
2023/06/20 11:11:39;;;;;;;0.75;0.75;;;28.60;99.90;;;;;;5126236;27;20052;-75
2023/06/20 11:14:19;;;;;;;1.55;1.45;;;29.00;99.90;;;;;;5108930;28;20071;-75
2023/06/20 11:16:46;;;;;;;2.40;1.08;;;28.90;99.90;;;;;;5091461;28;20438;-76
2023/06/20 11:19:11;;;;;;;0.45;0.45;;;29.10;99.90;;;;;;5091714;28;20503;-78
2023/06/20 11:21:37;;;;;;;0.43;0.40;;;29.10;99.90;;;;;;5107796;28;20039;-79
2023/06/20 11:24:04;;;;;;;1.08;0.30;;;29.20;99.30;;;;;;5108906;28;20485;-79
2023/06/20 11:26:31;;;;;;;0.75;0.50;;;29.20;99.10;;;;;;5091675;28;20058;-78
2023/06/20 11:29:04;;;;;;;0.63;0.63;;;29.30;99.90;;;;;;5091107;28;20040;-75
2023/06/20 11:31:31;;;;;;;1.15;1.02;;;29.50;99.50;;;;;;5091643;28;20397;-77
2023/06/20 11:34:14;;;;;;;0.20;0.20;;;29.50;98.30;;;;;;5091300;28;20057;-77
2023/06/20 11:36:40;;;;;;;0.55;0.55;;;29.50;98.20;;;;;;5104683;28;20055;-76
2023/06/20 11:39:07;;;;;;;0.25;0.25;;;29.80;99.80;;;;;;5088188;28;20040;-77
2023/06/20 11:41:34;;;;;;;1.17;1.02;;;29.70;99.00;;;;;;5072179;28;20119;-78
2023/06/20 11:44:00;;;;;;;1.10;0.90;;;29.90;98.20;;;;;;5054428;28;20052;-77
2023/06/20 11:46:27;;;;;;;0.47;0.47;;;30.20;97.20;;;;;;5105167;28;20036;-78
2023/06/20 11:48:56;;;;;;;0.63;0.63;;;30.30;99.30;;;;;;5054062;28;20135;-78
2023/06/20 11:51:24;;;;;;;0.73;0.38;;;30.40;99.90;;;;;;5124841;27;20040;-76
2023/06/20 11:54:01;;;;;;;0.95;0.52;;;30.50;99.90;;;;;;5124601;27;20118;-78
2023/06/20 11:56:27;;;;;;;0.13;0.13;;;31.00;99.90;;;;;;5091718;28;20051;-76
2023/06/20 11:58:53;;;;;;;1.17;0.40;;;31.00;99.90;;;;;;5090388;28;20044;-75
2023/06/20 12:01:25;;;;;;;0.45;0.40;;;31.20;99.90;;;;;;5073621;28;20101;-78
2023/06/20 12:04:12;;;;;;;0.20;0.20;;;31.40;99.90;;;;;;5090791;28;20370;-77
2023/06/20 12:06:40;;;;;;;0.38;0.38;;;31.10;99.90;;;;;;5074779;28;20131;-77
2023/06/20 12:09:08;;;;;;;0.77;0.68;;;31.10;99.90;;;;;;5090645;28;20088;-77
2023/06/20 12:11:36;;;;;;;0.77;0.77;;;30.90;99.90;;;;;;5091148;28;20102;-77
2023/06/20 12:14:02;;;;;;;0.13;0.13;;;31.00;99.90;;;;;;5075361;28;20051;-79
2023/06/20 12:16:28;;;;;;;0.75;0.35;;;30.80;99.90;;;;;;5075371;28;20044;-77
2023/06/20 12:18:59;;;;;;;0.43;0.43;;;30.90;99.90;;;;;;5075323;28;20066;-75
2023/06/20 12:21:25;;;;;;;0.57;0.40;;;30.80;99.90;;;;;;5090836;28;20562;-76
2023/06/20 12:23:51;;;;;;;2.10;0.90;;;31.00;99.90;;;;;;5090663;28;20050;-76
2023/06/20 12:26:17;;;;;;;0.85;0.85;;;31.20;99.90;;;;;;5073941;28;20040;-78
2023/06/20 12:28:43;;;;;;;0.30;0.30;;;31.40;99.90;;;;;;5074062;28;20109;-75
2023/06/20 12:31:11;;;;;;;1.20;0.63;;;31.10;99.90;;;;;;5074926;28;20032;-76
2023/06/20 12:33:37;;;;;;;0.20;0.20;;;31.20;99.90;;;;;;5074752;28;20063;-78
2023/06/20 12:36:04;;;;;;;0.98;0.95;;;31.30;99.60;;;;;;5057781;28;20047;-77
2023/06/20 12:38:30;;;;;;;0.90;0.82;;;31.40;99.90;;;;;;5058169;28;20058;-79
2023/06/20 12:40:57;;;;;;;0.75;0.75;;;31.30;99.20;;;;;;5089961;28;20047;-75
2023/06/20 12:43:23;;;;;;;0.60;0.60;;;31.40;99.90;;;;;;5090522;28;20036;-77
2023/06/20 12:45:49;;;;;;;1.27;0.80;;;31.80;98.90;;;;;;5090556;28;20036;-78
2023/06/20 12:48:15;;;;;;;0.70;0.70;;;31.80;98.40;;;;;;5090282;28;20047;-75
2023/06/20 12:50:40;;;;;;;0.38;0.38;;;31.90;97.70;;;;;;5089788;28;20043;-75
2023/06/20 12:53:06;;;;;;;0.82;0.82;;;32.20;97.50;;;;;;5073308;28;20098;-75
2023/06/20 12:55:32;;;;;;;0.50;0.50;;;32.40;96.70;;;;;;5073365;28;20456;-77
2023/06/20 12:57:58;;;;;;;0.55;0.50;;;32.50;96.10;;;;;;5090396;28;20454;-78
2023/06/20 13:00:24;;;;;;;1.35;0.63;;;32.50;93.70;;;;;;5056493;28;20134;-77